Snyders, Pennsylvania
Current Conditions -  °F | °C
As of 9:35 AM on Saturday 22 Nov 2014 (Local Time) from KHZL Reporting Station
Clear Clear  
Wind Chill: 25°   Ceiling: Unl
Heat Index: 32°   Visibility: 10mi
Dew Point: 10°   Wind: 8mph
Humidity: 41%   Direction: 170°S
Pressure: 30.38"   Gusts: NA
Location:  40.7138°N, 75.9395°W
Report Text: KHZL 221435Z AUTO 17007KT 10SM CLR 00/M12 A3038 RMK AO2
Loading
Personal Weather Stations






























Interactive Weather Map New forecast layout! Learn more

10-Day Weather Forecast

Advertisements
Track Severe Weather on mobile